sensor_id;sensor_type;location;lat;lon;timestamp;pressure;altitude;pressure_sealevel;temperature;humidity
65666;BME280;52365;47.464;18.976;2023-04-25T00:00:12;98726.50;;;13.58;64.74
65666;BME280;52365;47.464;18.976;2023-04-25T00:00:33;98730.63;;;13.65;64.56
65666;BME280;52365;47.464;18.976;2023-04-25T00:00:54;98727.00;;;13.51;64.38
65666;BME280;52365;47.464;18.976;2023-04-25T00:01:16;98727.00;;;13.57;64.51
65666;BME280;52365;47.464;18.976;2023-04-25T00:01:37;98730.69;;;13.59;64.34
65666;BME280;52365;47.464;18.976;2023-04-25T00:01:53;98727.84;;;13.82;64.09
65666;BME280;52365;47.464;18.976;2023-04-25T00:02:14;98732.12;;;13.66;63.97
65666;BME280;52365;47.464;18.976;2023-04-25T00:02:30;98724.91;;;13.27;64.38
65666;BME280;52365;47.464;18.976;2023-04-25T00:02:53;98729.28;;;13.36;64.67
65666;BME280;52365;47.464;18.976;2023-04-25T00:03:09;98730.53;;;13.29;64.97
65666;BME280;52365;47.464;18.976;2023-04-25T00:03:33;98723.34;;;13.49;65.01
65666;BME280;52365;47.464;18.976;2023-04-25T00:03:54;98724.81;;;13.50;64.76
65666;BME280;52365;47.464;18.976;2023-04-25T00:04:15;98722.81;;;13.56;64.79
65666;BME280;52365;47.464;18.976;2023-04-25T00:04:36;98715.75;;;13.42;64.52
65666;BME280;52365;47.464;18.976;2023-04-25T00:04:58;98725.41;;;13.09;65.23
65666;BME280;52365;47.464;18.976;2023-04-25T00:05:19;98728.34;;;13.22;65.64
65666;BME280;52365;47.464;18.976;2023-04-25T00:05:41;98726.53;;;13.53;65.42
65666;BME280;52365;47.464;18.976;2023-04-25T00:06:02;98724.03;;;13.60;65.04
65666;BME280;52365;47.464;18.976;2023-04-25T00:06:23;98728.69;;;13.60;64.81
65666;BME280;52365;47.464;18.976;2023-04-25T00:06:47;98720.31;;;13.64;64.95
65666;BME280;52365;47.464;18.976;2023-04-25T00:07:08;98725.03;;;13.57;64.80
65666;BME280;52365;47.464;18.976;2023-04-25T00:07:29;98721.88;;;13.48;64.92
65666;BME280;52365;47.464;18.976;2023-04-25T00:07:50;98715.47;;;13.45;65.05
65666;BME280;52365;47.464;18.976;2023-04-25T00:08:12;98717.94;;;13.49;64.84
65666;BME280;52365;47.464;18.976;2023-04-25T00:08:33;98723.66;;;13.28;65.02
65666;BME280;52365;47.464;18.976;2023-04-25T00:08:54;98723.91;;;13.25;65.52
65666;BME280;52365;47.464;18.976;2023-04-25T00:09:16;98720.16;;;13.45;65.38
65666;BME280;52365;47.464;18.976;2023-04-25T00:09:37;98728.09;;;13.26;65.53
65666;BME280;52365;47.464;18.976;2023-04-25T00:09:58;98724.56;;;13.53;65.31
65666;BME280;52365;47.464;18.976;2023-04-25T00:10:20;98716.72;;;13.39;65.27
65666;BME280;52365;47.464;18.976;2023-04-25T00:10:41;98718.50;;;13.25;65.41
65666;BME280;52365;47.464;18.976;2023-04-25T00:11:02;98721.47;;;12.99;66.26
65666;BME280;52365;47.464;18.976;2023-04-25T00:11:18;98717.53;;;13.05;66.59
65666;BME280;52365;47.464;18.976;2023-04-25T00:11:40;98718.03;;;13.04;66.52
65666;BME280;52365;47.464;18.976;2023-04-25T00:12:01;98721.94;;;13.14;66.71
65666;BME280;52365;47.464;18.976;2023-04-25T00:12:22;98711.41;;;13.05;66.69
65666;BME280;52365;47.464;18.976;2023-04-25T00:12:43;98717.25;;;13.20;66.68
65666;BME280;52365;47.464;18.976;2023-04-25T00:13:04;98719.22;;;13.25;66.24
65666;BME280;52365;47.464;18.976;2023-04-25T00:13:25;98715.44;;;13.51;65.81
65666;BME280;52365;47.464;18.976;2023-04-25T00:13:47;98710.00;;;13.62;65.13
65666;BME280;52365;47.464;18.976;2023-04-25T00:14:10;98717.53;;;13.11;65.69
65666;BME280;52365;47.464;18.976;2023-04-25T00:14:31;98714.34;;;13.13;66.09
65666;BME280;52365;47.464;18.976;2023-04-25T00:14:54;98711.34;;;13.16;66.31
65666;BME280;52365;47.464;18.976;2023-04-25T00:15:17;98716.00;;;13.32;66.03
65666;BME280;52365;47.464;18.976;2023-04-25T00:15:38;98714.00;;;13.39;65.68
65666;BME280;52365;47.464;18.976;2023-04-25T00:15:59;98715.50;;;13.40;65.58
65666;BME280;52365;47.464;18.976;2023-04-25T00:16:20;98716.88;;;13.63;65.08
65666;BME280;52365;47.464;18.976;2023-04-25T00:16:42;98713.00;;;13.53;65.00
65666;BME280;52365;47.464;18.976;2023-04-25T00:17:04;98703.75;;;13.15;65.54
65666;BME280;52365;47.464;18.976;2023-04-25T00:17:26;98716.00;;;13.32;65.64
65666;BME280;52365;47.464;18.976;2023-04-25T00:17:47;98713.03;;;13.42;65.78
65666;BME280;52365;47.464;18.976;2023-04-25T00:18:08;98702.25;;;13.19;65.88
65666;BME280;52365;47.464;18.976;2023-04-25T00:18:29;98708.44;;;13.14;66.11
65666;BME280;52365;47.464;18.976;2023-04-25T00:18:50;98719.03;;;13.01;66.43
65666;BME280;52365;47.464;18.976;2023-04-25T00:19:14;98713.37;;;13.04;66.73
65666;BME280;52365;47.464;18.976;2023-04-25T00:19:35;98713.59;;;13.06;66.62
65666;BME280;52365;47.464;18.976;2023-04-25T00:19:58;98715.56;;;13.11;66.56
65666;BME280;52365;47.464;18.976;2023-04-25T00:20:19;98710.38;;;13.25;66.62
65666;BME280;52365;47.464;18.976;2023-04-25T00:20:40;98711.34;;;13.22;66.35
65666;BME280;52365;47.464;18.976;2023-04-25T00:21:07;98705.19;;;13.32;66.40
65666;BME280;52365;47.464;18.976;2023-04-25T00:21:28;98709.47;;;12.83;66.59
65666;BME280;52365;47.464;18.976;2023-04-25T00:21:49;98707.22;;;13.04;66.71
65666;BME280;52365;47.464;18.976;2023-04-25T00:22:10;98708.22;;;13.01;66.84
65666;BME280;52365;47.464;18.976;2023-04-25T00:22:32;98709.44;;;13.00;66.69
65666;BME280;52365;47.464;18.976;2023-04-25T00:22:55;98711.16;;;13.08;66.43
65666;BME280;52365;47.464;18.976;2023-04-25T00:23:12;98706.75;;;12.77;66.83
65666;BME280;52365;47.464;18.976;2023-04-25T00:23:38;98709.22;;;12.87;67.09
65666;BME280;52365;47.464;18.976;2023-04-25T00:23:59;98703.28;;;13.05;66.66
65666;BME280;52365;47.464;18.976;2023-04-25T00:24:21;98705.94;;;13.22;66.45
65666;BME280;52365;47.464;18.976;2023-04-25T00:24:42;98714.28;;;13.29;66.08
65666;BME280;52365;47.464;18.976;2023-04-25T00:25:06;98709.38;;;13.17;66.11
65666;BME280;52365;47.464;18.976;2023-04-25T00:25:27;98707.19;;;13.26;66.09
65666;BME280;52365;47.464;18.976;2023-04-25T00:25:50;98711.63;;;13.18;66.01
65666;BME280;52365;47.464;18.976;2023-04-25T00:26:12;98710.88;;;13.23;65.81
65666;BME280;52365;47.464;18.976;2023-04-25T00:26:34;98711.66;;;13.01;66.41
65666;BME280;52365;47.464;18.976;2023-04-25T00:26:55;98698.41;;;12.75;66.76
65666;BME280;52365;47.464;18.976;2023-04-25T00:27:16;98701.06;;;12.98;66.60
65666;BME280;52365;47.464;18.976;2023-04-25T00:27:37;98704.81;;;12.83;66.60
65666;BME280;52365;47.464;18.976;2023-04-25T00:27:59;98710.19;;;13.00;66.57
65666;BME280;52365;47.464;18.976;2023-04-25T00:28:21;98710.38;;;13.25;66.08
65666;BME280;52365;47.464;18.976;2023-04-25T00:28:41;98706.94;;;13.19;65.74
65666;BME280;52365;47.464;18.976;2023-04-25T00:29:03;98705.22;;;13.16;65.56
65666;BME280;52365;47.464;18.976;2023-04-25T00:29:19;98704.97;;;13.25;65.88
65666;BME280;52365;47.464;18.976;2023-04-25T00:29:40;98701.03;;;13.31;65.50
65666;BME280;52365;47.464;18.976;2023-04-25T00:30:01;98709.12;;;13.31;65.11
65666;BME280;52365;47.464;18.976;2023-04-25T00:30:22;98706.41;;;13.37;65.00
65666;BME280;52365;47.464;18.976;2023-04-25T00:30:43;98702.25;;;13.19;65.25
65666;BME280;52365;47.464;18.976;2023-04-25T00:30:59;98695.41;;;13.07;65.73
65666;BME280;52365;47.464;18.976;2023-04-25T00:31:15;98702.03;;;13.17;65.92
65666;BME280;52365;47.464;18.976;2023-04-25T00:31:36;98706.72;;;13.22;65.82
65666;BME280;52365;47.464;18.976;2023-04-25T00:31:57;98713.56;;;13.29;65.60
65666;BME280;52365;47.464;18.976;2023-04-25T00:32:18;98706.91;;;13.35;65.42
65666;BME280;52365;47.464;18.976;2023-04-25T00:32:39;98696.13;;;13.24;65.46
65666;BME280;52365;47.464;18.976;2023-04-25T00:33:00;98699.81;;;13.16;65.77
65666;BME280;52365;47.464;18.976;2023-04-25T00:33:21;98702.25;;;13.25;65.86
65666;BME280;52365;47.464;18.976;2023-04-25T00:33:42;98704.22;;;13.24;65.61
65666;BME280;52365;47.464;18.976;2023-04-25T00:33:58;98699.50;;;13.42;65.47
65666;BME280;52365;47.464;18.976;2023-04-25T00:34:19;98706.84;;;13.47;65.26
65666;BME280;52365;47.464;18.976;2023-04-25T00:34:36;98704.41;;;13.43;65.27
65666;BME280;52365;47.464;18.976;2023-04-25T00:34:57;98711.72;;;13.59;64.97
65666;BME280;52365;47.464;18.976;2023-04-25T00:35:18;98706.50;;;13.73;64.51
65666;BME280;52365;47.464;18.976;2023-04-25T00:35:39;98693.34;;;13.41;64.47
65666;BME280;52365;47.464;18.976;2023-04-25T00:36:00;98695.16;;;12.99;65.48
65666;BME280;52365;47.464;18.976;2023-04-25T00:36:21;98699.16;;;12.87;66.29
65666;BME280;52365;47.464;18.976;2023-04-25T00:36:43;98703.50;;;13.07;66.36
65666;BME280;52365;47.464;18.976;2023-04-25T00:37:04;98698.88;;;12.85;66.53
65666;BME280;52365;47.464;18.976;2023-04-25T00:37:25;98696.44;;;12.81;67.05
65666;BME280;52365;47.464;18.976;2023-04-25T00:37:46;98693.00;;;12.75;67.30
65666;BME280;52365;47.464;18.976;2023-04-25T00:38:07;98709.44;;;13.05;66.99
65666;BME280;52365;47.464;18.976;2023-04-25T00:38:28;98706.94;;;13.24;66.41
65666;BME280;52365;47.464;18.976;2023-04-25T00:38:44;98689.47;;;13.25;66.19
65666;BME280;52365;47.464;18.976;2023-04-25T00:39:05;98700.06;;;13.23;66.07
65666;BME280;52365;47.464;18.976;2023-04-25T00:39:27;98700.47;;;13.39;65.77
65666;BME280;52365;47.464;18.976;2023-04-25T00:39:48;98696.50;;;13.56;65.21
65666;BME280;52365;47.464;18.976;2023-04-25T00:40:10;98705.31;;;13.63;64.71
65666;BME280;52365;47.464;18.976;2023-04-25T00:40:31;98700.97;;;13.48;64.70
65666;BME280;52365;47.464;18.976;2023-04-25T00:40:52;98704.19;;;13.41;65.03
65666;BME280;52365;47.464;18.976;2023-04-25T00:41:13;98699.47;;;13.53;65.04
65666;BME280;52365;47.464;18.976;2023-04-25T00:41:35;98697.16;;;13.68;64.91
65666;BME280;52365;47.464;18.976;2023-04-25T00:41:57;98698.06;;;13.82;64.51
65666;BME280;52365;47.464;18.976;2023-04-25T00:42:18;98708.13;;;13.93;64.05
65666;BME280;52365;47.464;18.976;2023-04-25T00:42:40;98686.03;;;13.77;64.00
65666;BME280;52365;47.464;18.976;2023-04-25T00:43:02;98703.84;;;13.62;64.13
65666;BME280;52365;47.464;18.976;2023-04-25T00:43:26;98695.84;;;13.39;65.16
65666;BME280;52365;47.464;18.976;2023-04-25T00:43:48;98703.13;;;13.55;65.31
65666;BME280;52365;47.464;18.976;2023-04-25T00:44:11;98693.78;;;13.51;65.19
65666;BME280;52365;47.464;18.976;2023-04-25T00:44:33;98693.78;;;13.51;65.07
65666;BME280;52365;47.464;18.976;2023-04-25T00:44:56;98695.81;;;13.45;65.13
65666;BME280;52365;47.464;18.976;2023-04-25T00:45:19;98702.19;;;13.47;65.33
65666;BME280;52365;47.464;18.976;2023-04-25T00:45:40;98689.94;;;13.29;65.86
65666;BME280;52365;47.464;18.976;2023-04-25T00:46:02;98686.69;;;13.48;65.82
65666;BME280;52365;47.464;18.976;2023-04-25T00:46:23;98699.78;;;13.32;65.93
65666;BME280;52365;47.464;18.976;2023-04-25T00:46:44;98694.81;;;13.48;65.83
65666;BME280;52365;47.464;18.976;2023-04-25T00:47:07;98684.56;;;13.18;66.27
65666;BME280;52365;47.464;18.976;2023-04-25T00:47:28;98686.75;;;13.25;66.43
65666;BME280;52365;47.464;18.976;2023-04-25T00:47:45;98699.78;;;13.32;66.46
65666;BME280;52365;47.464;18.976;2023-04-25T00:48:06;98682.25;;;13.50;66.07
65666;BME280;52365;47.464;18.976;2023-04-25T00:48:27;98690.37;;;13.45;65.95
65666;BME280;52365;47.464;18.976;2023-04-25T00:48:48;98685.47;;;13.43;65.98
65666;BME280;52365;47.464;18.976;2023-04-25T00:49:09;98692.13;;;13.37;66.05
65666;BME280;52365;47.464;18.976;2023-04-25T00:49:36;98683.81;;;13.34;66.08
65666;BME280;52365;47.464;18.976;2023-04-25T00:49:57;98684.03;;;13.37;66.22
65666;BME280;52365;47.464;18.976;2023-04-25T00:50:18;98683.81;;;13.34;65.96
65666;BME280;52365;47.464;18.976;2023-04-25T00:50:39;98686.25;;;13.32;65.85
65666;BME280;52365;47.464;18.976;2023-04-25T00:51:00;98687.00;;;13.16;66.09
65666;BME280;52365;47.464;18.976;2023-04-25T00:51:21;98688.22;;;13.32;66.17
65666;BME280;52365;47.464;18.976;2023-04-25T00:51:43;98685.78;;;13.28;66.48
65666;BME280;52365;47.464;18.976;2023-04-25T00:52:05;98689.16;;;13.46;66.19
65666;BME280;52365;47.464;18.976;2023-04-25T00:52:26;98689.25;;;13.23;66.46
65666;BME280;52365;47.464;18.976;2023-04-25T00:52:47;98678.72;;;12.92;66.95
65666;BME280;52365;47.464;18.976;2023-04-25T00:53:09;98677.72;;;12.95;67.26
65666;BME280;52365;47.464;18.976;2023-04-25T00:53:31;98683.37;;;12.97;67.03
65666;BME280;52365;47.464;18.976;2023-04-25T00:53:53;98679.22;;;12.96;67.30
65666;BME280;52365;47.464;18.976;2023-04-25T00:54:14;98677.28;;;12.68;67.92
65666;BME280;52365;47.464;18.976;2023-04-25T00:54:36;98681.91;;;12.90;67.72
65666;BME280;52365;47.464;18.976;2023-04-25T00:54:57;98674.31;;;12.77;67.70
65666;BME280;52365;47.464;18.976;2023-04-25T00:55:13;98684.63;;;12.96;67.90
65666;BME280;52365;47.464;18.976;2023-04-25T00:55:30;98682.66;;;12.96;67.79
65666;BME280;52365;47.464;18.976;2023-04-25T00:55:52;98677.50;;;12.93;67.61
65666;BME280;52365;47.464;18.976;2023-04-25T00:56:14;98677.03;;;12.77;67.91
65666;BME280;52365;47.464;18.976;2023-04-25T00:56:35;98683.44;;;12.74;68.17
65666;BME280;52365;47.464;18.976;2023-04-25T00:56:52;98682.41;;;12.94;68.10
65666;BME280;52365;47.464;18.976;2023-04-25T00:57:13;98675.19;;;13.19;67.59
65666;BME280;52365;47.464;18.976;2023-04-25T00:57:34;98677.16;;;13.35;66.88
65666;BME280;52365;47.464;18.976;2023-04-25T00:57:56;98679.09;;;13.41;66.44
65666;BME280;52365;47.464;18.976;2023-04-25T00:58:17;98678.16;;;13.16;66.36
65666;BME280;52365;47.464;18.976;2023-04-25T00:58:40;98676.75;;;12.98;66.97
65666;BME280;52365;47.464;18.976;2023-04-25T00:59:02;98683.41;;;12.80;67.72
65666;BME280;52365;47.464;18.976;2023-04-25T00:59:23;98674.53;;;12.96;68.06
65666;BME280;52365;47.464;18.976;2023-04-25T00:59:45;98678.72;;;12.97;67.91
65666;BME280;52365;47.464;18.976;2023-04-25T01:00:08;98676.50;;;13.01;67.77
65666;BME280;52365;47.464;18.976;2023-04-25T01:00:30;98668.66;;;12.92;67.69
65666;BME280;52365;47.464;18.976;2023-04-25T01:00:51;98678.25;;;12.82;68.02
65666;BME280;52365;47.464;18.976;2023-04-25T01:01:13;98672.09;;;12.81;68.19
65666;BME280;52365;47.464;18.976;2023-04-25T01:01:34;98675.28;;;12.85;68.15
65666;BME280;52365;47.464;18.976;2023-04-25T01:01:50;98678.25;;;12.76;68.39
65666;BME280;52365;47.464;18.976;2023-04-25T01:02:12;98669.41;;;12.76;68.32
65666;BME280;52365;47.464;18.976;2023-04-25T01:02:34;98684.66;;;12.73;68.49
65666;BME280;52365;47.464;18.976;2023-04-25T01:02:56;98678.53;;;12.39;68.92
65666;BME280;52365;47.464;18.976;2023-04-25T01:03:18;98674.34;;;12.49;69.55
65666;BME280;52365;47.464;18.976;2023-04-25T01:03:40;98676.28;;;12.77;69.23
65666;BME280;52365;47.464;18.976;2023-04-25T01:04:01;98673.09;;;12.84;68.87
65666;BME280;52365;47.464;18.976;2023-04-25T01:04:23;98670.66;;;12.75;68.76
65666;BME280;52365;47.464;18.976;2023-04-25T01:04:44;98663.03;;;12.62;69.25
65666;BME280;52365;47.464;18.976;2023-04-25T01:05:00;98663.97;;;12.81;69.01
65666;BME280;52365;47.464;18.976;2023-04-25T01:05:21;98673.38;;;12.69;68.91
65666;BME280;52365;47.464;18.976;2023-04-25T01:05:43;98677.06;;;12.60;69.45
65666;BME280;52365;47.464;18.976;2023-04-25T01:06:04;98675.13;;;12.39;69.79
65666;BME280;52365;47.464;18.976;2023-04-25T01:06:20;98665.72;;;12.68;69.58
65666;BME280;52365;47.464;18.976;2023-04-25T01:06:43;98667.94;;;12.80;69.33
65666;BME280;52365;47.464;18.976;2023-04-25T01:07:04;98679.00;;;12.77;69.23
65666;BME280;52365;47.464;18.976;2023-04-25T01:07:25;98669.88;;;12.97;68.88
65666;BME280;52365;47.464;18.976;2023-04-25T01:07:47;98672.59;;;12.91;68.65
65666;BME280;52365;47.464;18.976;2023-04-25T01:08:08;98669.16;;;12.85;68.70
65666;BME280;52365;47.464;18.976;2023-04-25T01:08:24;98664.22;;;13.00;68.37
65666;BME280;52365;47.464;18.976;2023-04-25T01:08:46;98660.31;;;12.84;68.22
65666;BME280;52365;47.464;18.976;2023-04-25T01:09:02;98669.84;;;13.02;68.20
65666;BME280;52365;47.464;18.976;2023-04-25T01:09:25;98675.28;;;12.85;68.27
65666;BME280;52365;47.464;18.976;2023-04-25T01:09:46;98669.22;;;12.40;69.18
65666;BME280;52365;47.464;18.976;2023-04-25T01:10:03;98671.91;;;12.34;70.00
65666;BME280;52365;47.464;18.976;2023-04-25T01:10:24;98666.75;;;12.37;70.27
65666;BME280;52365;47.464;18.976;2023-04-25T01:10:45;98675.56;;;12.71;69.83
65666;BME280;52365;47.464;18.976;2023-04-25T01:11:06;98664.25;;;12.78;69.17
65666;BME280;52365;47.464;18.976;2023-04-25T01:11:22;98666.25;;;12.60;69.25
65666;BME280;52365;47.464;18.976;2023-04-25T01:11:43;98668.94;;;12.49;69.62
65666;BME280;52365;47.464;18.976;2023-04-25T01:12:05;98673.63;;;12.60;69.75
65666;BME280;52365;47.464;18.976;2023-04-25T01:12:26;98669.66;;;12.72;69.37
65666;BME280;52365;47.464;18.976;2023-04-25T01:12:47;98665.97;;;12.75;69.07
65666;BME280;52365;47.464;18.976;2023-04-25T01:13:08;98669.38;;;12.93;68.70
65666;BME280;52365;47.464;18.976;2023-04-25T01:13:30;98670.59;;;12.97;68.55
65666;BME280;52365;47.464;18.976;2023-04-25T01:13:52;98665.22;;;12.80;68.39
65666;BME280;52365;47.464;18.976;2023-04-25T01:14:13;98670.66;;;12.58;68.86
65666;BME280;52365;47.464;18.976;2023-04-25T01:14:34;98665.97;;;12.75;69.10
65666;BME280;52365;47.464;18.976;2023-04-25T01:14:55;98676.06;;;12.69;68.86
65666;BME280;52365;47.464;18.976;2023-04-25T01:15:17;98676.56;;;12.73;68.82
65666;BME280;52365;47.464;18.976;2023-04-25T01:15:38;98668.44;;;12.51;69.27
65666;BME280;52365;47.464;18.976;2023-04-25T01:15:59;98671.62;;;12.72;69.10
65666;BME280;52365;47.464;18.976;2023-04-25T01:16:21;98673.59;;;12.71;68.92
65666;BME280;52365;47.464;18.976;2023-04-25T01:16:44;98673.84;;;12.62;69.02
65666;BME280;52365;47.464;18.976;2023-04-25T01:17:05;98675.09;;;12.61;69.21
65666;BME280;52365;47.464;18.976;2023-04-25T01:17:28;98676.81;;;12.58;69.50
65666;BME280;52365;47.464;18.976;2023-04-25T01:17:49;98673.16;;;12.39;69.57
65666;BME280;52365;47.464;18.976;2023-04-25T01:18:11;98672.88;;;12.54;69.50
65666;BME280;52365;47.464;18.976;2023-04-25T01:18:32;98667.22;;;12.63;69.23
65666;BME280;52365;47.464;18.976;2023-04-25T01:18:54;98668.69;;;12.58;69.18
65666;BME280;52365;47.464;18.976;2023-04-25T01:19:16;98674.34;;;12.66;69.02
65666;BME280;52365;47.464;18.976;2023-04-25T01:19:38;98666.69;;;12.87;68.65
65666;BME280;52365;47.464;18.976;2023-04-25T01:20:03;98673.06;;;13.01;68.13
65666;BME280;52365;47.464;18.976;2023-04-25T01:20:25;98673.56;;;12.88;67.79
65666;BME280;52365;47.464;18.976;2023-04-25T01:20:48;98669.88;;;12.85;67.69
65666;BME280;52365;47.464;18.976;2023-04-25T01:21:12;98657.19;;;12.47;68.39
65666;BME280;52365;47.464;18.976;2023-04-25T01:21:36;98667.00;;;12.27;69.19
65666;BME280;52365;47.464;18.976;2023-04-25T01:21:57;98667.22;;;12.24;69.48
65666;BME280;52365;47.464;18.976;2023-04-25T01:22:18;98669.72;;;12.16;69.85
65666;BME280;52365;47.464;18.976;2023-04-25T01:22:40;98661.59;;;12.39;69.55
65666;BME280;52365;47.464;18.976;2023-04-25T01:23:01;98658.66;;;12.48;69.33
65666;BME280;52365;47.464;18.976;2023-04-25T01:23:20;98672.13;;;12.70;68.96
65666;BME280;52365;47.464;18.976;2023-04-25T01:23:42;98672.09;;;12.93;68.30
65666;BME280;52365;47.464;18.976;2023-04-25T01:24:03;98667.63;;;13.06;67.40
65666;BME280;52365;47.464;18.976;2023-04-25T01:24:24;98662.22;;;13.01;67.11
65666;BME280;52365;47.464;18.976;2023-04-25T01:24:41;98675.44;;;13.21;66.95
65666;BME280;52365;47.464;18.976;2023-04-25T01:25:03;98673.31;;;12.92;66.97
65666;BME280;52365;47.464;18.976;2023-04-25T01:25:24;98667.91;;;12.86;67.14
65666;BME280;52365;47.464;18.976;2023-04-25T01:25:46;98659.78;;;12.97;67.13
65666;BME280;52365;47.464;18.976;2023-04-25T01:26:10;98657.09;;;12.92;66.98
65666;BME280;52365;47.464;18.976;2023-04-25T01:26:26;98658.56;;;12.81;66.90
65666;BME280;52365;47.464;18.976;2023-04-25T01:26:48;98659.81;;;12.92;67.11
65666;BME280;52365;47.464;18.976;2023-04-25T01:27:12;98667.16;;;12.85;67.05
65666;BME280;52365;47.464;18.976;2023-04-25T01:27:33;98668.66;;;12.87;67.28
65666;BME280;52365;47.464;18.976;2023-04-25T01:27:57;98670.62;;;12.86;67.25
65666;BME280;52365;47.464;18.976;2023-04-25T01:28:19;98661.72;;;13.02;67.16
65666;BME280;52365;47.464;18.976;2023-04-25T01:28:40;98671.59;;;13.00;66.74
65666;BME280;52365;47.464;18.976;2023-04-25T01:29:04;98676.03;;;12.92;66.63
65666;BME280;52365;47.464;18.976;2023-04-25T01:29:26;98665.66;;;13.01;66.70
65666;BME280;52365;47.464;18.976;2023-04-25T01:29:49;98664.38;;;13.19;66.28
65666;BME280;52365;47.464;18.976;2023-04-25T01:30:06;98667.84;;;13.14;66.00
65666;BME280;52365;47.464;18.976;2023-04-25T01:30:27;98661.00;;;13.02;65.96
65666;BME280;52365;47.464;18.976;2023-04-25T01:30:49;98658.34;;;12.91;66.37
65666;BME280;52365;47.464;18.976;2023-04-25T01:31:06;98670.16;;;12.76;66.64
65666;BME280;52365;47.464;18.976;2023-04-25T01:31:28;98669.44;;;12.70;67.00
65666;BME280;52365;47.464;18.976;2023-04-25T01:31:51;98662.06;;;12.65;67.33
65666;BME280;52365;47.464;18.976;2023-04-25T01:32:13;98663.50;;;12.89;67.12
65666;BME280;52365;47.464;18.976;2023-04-25T01:32:35;98660.28;;;12.90;66.92
65666;BME280;52365;47.464;18.976;2023-04-25T01:33:00;98648.72;;;12.90;66.86
65666;BME280;52365;47.464;18.976;2023-04-25T01:33:21;98662.22;;;13.06;66.40
65666;BME280;52365;47.464;18.976;2023-04-25T01:33:43;98666.87;;;13.06;66.16
65666;BME280;52365;47.464;18.976;2023-04-25T01:34:05;98658.25;;;13.07;65.86
65666;BME280;52365;47.464;18.976;2023-04-25T01:34:26;98653.63;;;12.97;66.02
65666;BME280;52365;47.464;18.976;2023-04-25T01:34:47;98652.13;;;13.07;65.94
65666;BME280;52365;47.464;18.976;2023-04-25T01:35:11;98656.81;;;13.01;65.84
65666;BME280;52365;47.464;18.976;2023-04-25T01:35:32;98661.44;;;13.23;65.56
65666;BME280;52365;47.464;18.976;2023-04-25T01:35:48;98662.19;;;13.12;65.63
65666;BME280;52365;47.464;18.976;2023-04-25T01:36:09;98664.47;;;12.91;65.99
65666;BME280;52365;47.464;18.976;2023-04-25T01:36:30;98661.97;;;12.99;66.11
65666;BME280;52365;47.464;18.976;2023-04-25T01:36:52;98659.75;;;13.03;65.90
65666;BME280;52365;47.464;18.976;2023-04-25T01:37:14;98673.75;;;13.07;65.67
65666;BME280;52365;47.464;18.976;2023-04-25T01:37:37;98664.22;;;13.00;65.87
65666;BME280;52365;47.464;18.976;2023-04-25T01:37:58;98658.31;;;12.85;66.24
65666;BME280;52365;47.464;18.976;2023-04-25T01:38:19;98649.47;;;12.90;65.94
65666;BME280;52365;47.464;18.976;2023-04-25T01:38:41;98659.28;;;12.99;65.99
65666;BME280;52365;47.464;18.976;2023-04-25T01:39:02;98659.09;;;12.74;66.16
65666;BME280;52365;47.464;18.976;2023-04-25T01:39:24;98655.16;;;12.64;66.45
65666;BME280;52365;47.464;18.976;2023-04-25T01:39:45;98652.91;;;12.85;66.34
65666;BME280;52365;47.464;18.976;2023-04-25T01:40:08;98663.25;;;12.87;66.14
65666;BME280;52365;47.464;18.976;2023-04-25T01:40:30;98656.06;;;13.06;65.60
65666;BME280;52365;47.464;18.976;2023-04-25T01:40:53;98650.63;;;13.11;65.12
65666;BME280;52365;47.464;18.976;2023-04-25T01:41:15;98650.16;;;13.07;65.19
65666;BME280;52365;47.464;18.976;2023-04-25T01:41:38;98647.94;;;13.11;65.06
65666;BME280;52365;47.464;18.976;2023-04-25T01:41:59;98654.13;;;13.01;64.71
65666;BME280;52365;47.464;18.976;2023-04-25T01:42:20;98661.00;;;12.96;64.84
65666;BME280;52365;47.464;18.976;2023-04-25T01:42:43;98656.41;;;12.63;65.69
65666;BME280;52365;47.464;18.976;2023-04-25T01:43:04;98663.03;;;12.62;65.89
65666;BME280;52365;47.464;18.976;2023-04-25T01:43:25;98655.44;;;12.49;66.45
65666;BME280;52365;47.464;18.976;2023-04-25T01:43:47;98657.63;;;12.73;66.35
65666;BME280;52365;47.464;18.976;2023-04-25T01:44:08;98657.88;;;12.75;66.14
65666;BME280;52365;47.464;18.976;2023-04-25T01:44:29;98655.88;;;12.81;66.02
65666;BME280;52365;47.464;18.976;2023-04-25T01:44:50;98654.47;;;12.52;66.51
65666;BME280;52365;47.464;18.976;2023-04-25T01:45:07;98654.22;;;12.50;66.86
65666;BME280;52365;47.464;18.976;2023-04-25T01:45:28;98653.94;;;12.82;66.50
65666;BME280;52365;47.464;18.976;2023-04-25T01:45:50;98656.59;;;12.93;65.77
65666;BME280;52365;47.464;18.976;2023-04-25T01:46:12;98652.66;;;12.94;65.55
65666;BME280;52365;47.464;18.976;2023-04-25T01:46:33;98666.69;;;12.93;65.45
65666;BME280;52365;47.464;18.976;2023-04-25T01:46:55;98657.31;;;12.94;65.57
65666;BME280;52365;47.464;18.976;2023-04-25T01:47:16;98651.22;;;12.88;65.41
65666;BME280;52365;47.464;18.976;2023-04-25T01:47:38;98662.53;;;12.75;65.42
65666;BME280;52365;47.464;18.976;2023-04-25T01:47:55;98650.75;;;12.67;65.78
65666;BME280;52365;47.464;18.976;2023-04-25T01:48:19;98658.63;;;12.65;65.87
65666;BME280;52365;47.464;18.976;2023-04-25T01:48:41;98655.41;;;12.83;65.71
65666;BME280;52365;47.464;18.976;2023-04-25T01:49:02;98652.69;;;12.77;65.46
65666;BME280;52365;47.464;18.976;2023-04-25T01:49:23;98660.81;;;12.83;65.40
65666;BME280;52365;47.464;18.976;2023-04-25T01:49:44;98657.28;;;13.10;65.08
65666;BME280;52365;47.464;18.976;2023-04-25T01:50:07;98656.03;;;13.23;64.50
65666;BME280;52365;47.464;18.976;2023-04-25T01:50:28;98660.06;;;12.82;64.74
65666;BME280;52365;47.464;18.976;2023-04-25T01:50:50;98654.59;;;12.99;64.85